Flight Track Log - Related Links

Times and Time Zones

All times are in EST time to prevent confusion due to time zone crossing. See the N700QA flight status page for this flight to view local times or setup timezone preferences in your user account.

Time Position Orientation Groundspeed Altitude Reporting Facility
EST Latitude Longitude Course Direction KTS MPH feet Rate Location/Type
Fri 06:22:00 PM 33.9328 -118.4428 248° West 201 231 1,500  Level Los Angeles Center
Fri 06:23:03 PM 33.9078 -118.5167 248° West 242 278 3,800 2,592 Climbing Los Angeles Center
Fri 06:24:05 PM 33.8492 -118.5436 201° Southwest 252 290 6,900 2,613 Climbing Los Angeles Center
Fri 06:25:07 PM 33.8567 -118.4700 83° East 266 306 9,200 2,226 Climbing Los Angeles Center
Fri 06:26:09 PM 33.9350 -118.4572 North 284 327 11,500 2,177 Climbing Los Angeles Center
Fri 06:27:11 PM 33.9794 -118.3706 58° Northeast 302 348 13,700 1,548 Climbing Los Angeles Center
Fri 06:28:13 PM 34.0244 -118.2764 60° Northeast 320 368 14,700 1,103 Climbing Los Angeles Center
Fri 06:29:27 PM 34.0817 -118.1786 55° Northeast 349 402 16,200 1,401 Climbing Los Angeles Center
Fri 06:30:30 PM 34.1489 -118.0567 56° Northeast 362 417 17,900 1,344 Climbing Los Angeles Center
Fri 06:31:32 PM 34.2072 -117.9544 55° Northeast 367 422 19,000 532 Climbing Los Angeles Center
Fri 06:32:34 PM 34.2667 -117.8483 56° Northeast 378 435 19,000 97 Level Los Angeles Center
Fri 06:33:36 PM 34.3339 -117.7267 56° Northeast 366 421 19,200 435 Climbing Los Angeles Center
Fri 06:34:38 PM 34.3856 -117.6378 55° Northeast 372 428 19,900 774 Climbing Los Angeles Center
Fri 06:35:40 PM 34.4444 -117.5300 56° Northeast 384 442 20,800 528 Climbing Los Angeles Center
Fri 06:36:43 PM 34.5147 -117.4022 56° Northeast 382 440 21,000 336 Climbing Los Angeles Center
Fri 06:37:45 PM 34.5722 -117.2992 56° Northeast 374 430 21,500 484 Climbing Los Angeles Center
Fri 06:38:47 PM 34.6272 -117.1975 57° Northeast 366 421 22,000 194 Climbing Los Angeles Center
Fri 06:39:49 PM 34.6794 -117.1011 57° Northeast 349 402 21,900 -132 Descending Los Angeles Center
Fri 06:41:03 PM 34.7317 -117.0064 56° Northeast 342 394 21,700 -353 Descending Los Angeles Center
Fri 06:42:05 PM 34.8042 -116.8717 57° Northeast 342 394 21,100 -336 Descending Los Angeles Center
Fri 06:43:08 PM 34.8561 -116.7764 56° Northeast 340 391 21,000 -48 Descending Los Angeles Center
Fri 06:44:10 PM 34.9064 -116.6825 57° Northeast 334 384 21,000  Level Los Angeles Center
Fri 06:45:12 PM 34.9592 -116.5883 56° Northeast 338 389 21,000  Level Los Angeles Center
Fri 06:46:14 PM 35.0236 -116.5033 47° Northeast 341 392 21,000  Level Los Angeles Center
Fri 06:47:16 PM 35.1033 -116.4053 45° Northeast 341 392 21,000 48 Level Los Angeles Center
Fri 06:48:18 PM 35.1714 -116.3178 46° Northeast 351 404 21,100 48 Climbing Los Angeles Center
Fri 06:49:20 PM 35.2497 -116.2233 45° Northeast 377 434 21,100 -48 Level Los Angeles Center
Fri 06:50:22 PM 35.3233 -116.1267 47° Northeast 389 448 21,000 -823 Descending Los Angeles Center
Fri 06:51:24 PM 35.3981 -116.0336 45° Northeast 385 443 19,400 -1,984 Descending Los Angeles Center
Fri 06:52:26 PM 35.4867 -115.9239 45° Northeast 381 438 16,900 -2,274 Descending Los Angeles Center
Fri 06:52:59 PM 35.5253 -115.8789 43° Northeast 377 434 15,800 -2,000 Descending Los Angeles Center
Fri 06:53:29 PM 35.5586 -115.8317 49° Northeast 377 434 14,800 -2,066 Descending Los Angeles Center
Fri 06:54:00 PM 35.6036 -115.7800 43° Northeast 371 427 13,700 -1,452 Descending Los Angeles Center
Fri 06:54:31 PM 35.6247 -115.7467 52° Northeast 371 427 13,300 -764 Descending Los Angeles Center
Fri 06:54:55 PM 35.6611 -115.7061 42° Northeast 359 413 13,000 -290 Descending Los Angeles Center
Fri 06:55:33 PM 35.7008 -115.6489 49° Northeast 336 387 13,000  Level Los Angeles Center
Fri 06:56:01 PM 35.7306 -115.6178 40° Northeast 320 368 13,000  Level Los Angeles Center
Fri 06:56:35 PM 35.7742 -115.5994 19° North 319 367 13,000  Level Los Angeles Center
Fri 06:57:03 PM 35.8144 -115.5961 North 314 361 13,000  Level Los Angeles Center
Fri 06:57:37 PM 35.8672 -115.5881 North 315 362 13,000  Level Los Angeles Center
Fri 06:58:03 PM 35.9003 -115.5842 North 315 362 13,000  Level Los Angeles Center
Fri 06:58:39 PM 35.9508 -115.5736 10° North 303 349 13,000 -269 Level Los Angeles Center
Fri 06:59:10 PM 35.9894 -115.5578 18° North 270 311 12,700 -677 Descending Los Angeles Center
Fri 06:59:41 PM 36.0064 -115.5200 61° Northeast 278 320 12,300 -857 Descending Los Angeles Center
Fri 07:00:06 PM 36.0136 -115.4783 78° East 280 322 11,900 -871 Descending Los Angeles Center
Fri 07:00:43 PM 36.0236 -115.4197 78° East 276 318 11,400 -1,000 Descending Los Angeles Center
Fri 07:01:12 PM 36.0311 -115.3797 77° East 273 314 10,800 -1,065 Descending Los Angeles Center
Fri 07:01:45 PM 36.0303 -115.3281 91° East 276 318 10,300 -982 Descending Los Angeles Center
Fri 07:02:07 PM 36.0275 -115.2931 96° East 270 311 9,900 -871 Descending Los Angeles Center
Fri 07:02:47 PM 36.0233 -115.2336 95° East 260 299 9,400 -689 Descending Los Angeles Center
Fri 07:03:08 PM 36.0214 -115.2047 95° East 240 276 9,200 -762 Descending Los Angeles Center
Fri 07:03:50 PM 36.0186 -115.1608 94° East 221 254 8,600 -1,082 Descending Los Angeles Center
Fri 07:04:09 PM 36.0158 -115.1294 96° East 203 234 8,100 -581 Descending Los Angeles Center
Fri 07:04:52 PM 36.0133 -115.0894 94° East 213 245 8,000 -393 Descending Los Angeles Center
Fri 07:05:10 PM 36.0236 -115.0658 62° Northeast 207 238 7,700 -486 Descending Los Angeles Center
Fri 07:06:06 PM 36.0500 -115.0422 36° Northeast 215 247 7,400 -590 Descending Los Angeles Center
Fri 07:06:11 PM 36.0728 -115.0336 17° North 204 235 7,100 -1,452 Descending Los Angeles Center
Fri 07:07:08 PM 36.1208 -115.0392 355° North 214 246 5,900 -1,300 Descending Los Angeles Center
Fri 07:07:11 PM 36.1225 -115.0436 295° West 184 212 5,800 -1,742 Descending Los Angeles Center
Fri 07:08:10 PM 36.1386 -115.0886 294° West 177 204 4,100 -1,770 Descending Los Angeles Center
Fri 07:08:12 PM 36.1378 -115.0944 260° West 154 177 4,000 -1,258 Descending Los Angeles Center
Fri 07:09:12 PM 36.1300 -115.1372 257° West 158 182 2,800 -1,180 Descending Los Angeles Center
Fri 07:09:13 PM 36.1264 -115.1411 221° Southwest 144 166 2,800 -381 Level Los Angeles Center
Fri 07:10:15 PM 36.0917 -115.1633 207° Southwest 150 173 2,400 -387 Descending Los Angeles Center
Fri 07:12:00 PM 36.0801 -115.1523 118° Southeast  Level Estimated

Login

Don't have an account? Register now (free) for customized features, flight alerts, and more!